Aérodrome :
LOGIN :

S'inscrire | Disclaimer

   EN    FR    IT 

 










Légende :    VFR   VFR Marginal   IFR   IFR Intensif   IFR Très Intensif
Visi : 
Plafond : 
>= 8 km
>= 3000ft
5 à 8 km
1000 à 3000 ft
1500m à 5 km
500 à 1000 ft
800 à 1500m
200 à 500 ft
< 800m
< 200 ft
Symboles :   Orages  Brouillard  Fortes neiges  Fortes précipitations  Vent > 20 kt
SIGMETs :   Divers  Orages  Givrage  Turbulence  Onde Orograph.  Cendres Volcan.






- Altitude de l'aérodrome : 295 ft
- Code IATA : BWE


EDVE - Braunschweig

DERNIER METAR :
  • 221220Z 30009KT 8000 FEW004 SCT006 OVC020 06/05 Q1029

METARs EXPIRÉS :
  • 221150Z 30009KT 9000 BKN008 OVC015 06/05 Q1029
  • 221120Z 31009KT 9999 FEW005 OVC008 06/05 Q1029
  • 221050Z 31008KT 9999 2700E OVC004 06/05 Q1029 REDZ

TAF TAF EDVE
Valide du 22 à 12h jusqu'au 22 à 21h UTC


221100Z 2212/2221 29007KT 6000 BKN006
TEMPO 2212/2216 2000 DZ BR OVC003
TEMPO 2216/2221 4500 -DZ BR
PROB30
TEMPO 2216/2219 SCT006 BKN013



MET'MAP, la Météo Aéronautique d'un coup d'oeil ! - Copyright ORBIFLY Décembre 2007 - Disclaimer

ORBIFLY MET'MAP TEAM :

Programmation & Développement : Alexandra Zaïnal
Sur une idée originale de : Baudouin d'Aumeries
Assistance à la programmation : Marc-Olivier Méhu
Soutien technique & logistique : Manuel Goepfert

Contact : metmap@orbifly.com




SOURCES & CREDITS :

   NOAA